METAR AND TAF INFORMATION
METAR FOR SKBG
ADDS - METARS form results

(1947 UTC 26 April 2018)
Data provider http://aviationweather.gov/adds/metars/
 
METAR text: SKBG 261900Z 27005KT 9999 FEW007TCU SCT240 27/21 A2994 RMK TCU/E
Conditions at: SKBG (BUCARAMANGO/PALO, CO) observed 1900 UTC 26 April 2018
Temperature: 27.0°C (81°F)
Dewpoint: 21.0°C (70°F) [RH = 70%]
Pressure (altimeter): 29.94 inches Hg (1014.0 mb)
Winds: from the W (270 degrees) at 6 MPH (5 knots; 2.6 m/s)
Visibility: 6 or more miles (10+ km)
Ceiling: at least 12,000 feet AGL
Clouds: few clouds at 700 feet AGL
scattered clouds at 24000 feet AGL
Weather: no significant weather observed at this time

Forecast for: SKBG (BUCARAMANGO/PALO, CO)
Text: TAF SKBG 261700Z 2618/2718 34004KT 9999 SCT012 SCT080
Forecast period: 1800 to 1900 UTC 26 April 2018
Forecast type: FROM: standard forecast or significant change
Winds: from the NNW (340 degrees) at 5 MPH (4 knots; 2.1 m/s)
Visibility: 6 or more miles (10+ km)
Clouds: scattered clouds at 1200 feet AGL
scattered clouds at 8000 feet AGL
Weather: no significant weather forecast for this period
Forecast for: SKBG (BUCARAMANGO/PALO, CO)
Text: TAF SKBG 261700Z 2618/2718 34004KT 9999 SCT012 SCT080
Forecast period: 1800 to 1900 UTC 26 April 2018
Forecast type: FROM: standard forecast or significant change
Winds: from the NNW (340 degrees) at 5 MPH (4 knots; 2.1 m/s)
Visibility: 6 or more miles (10+ km)
Clouds: scattered clouds at 1200 feet AGL
scattered clouds at 8000 feet AGL
Weather: no significant weather forecast for this period
Forecast for: SKBG (BUCARAMANGO/PALO, CO)
Text: TAF SKBG 261700Z 2618/2718 34004KT 9999 SCT012 SCT080
Forecast period: 1900 UTC 26 April 2018 to 1800 UTC 27 April 2018
Forecast type: BECOMING: Conditions expected to become as follows by 2100 UTC 26 April 2018
Winds: variable direction winds at 2 MPH (2 knots; 1.0 m/s)
Visibility: 6 or more miles (10+ km)
Clouds: scattered clouds at 1200 feet AGL
scattered clouds at 8000 feet AGL
Weather: no significant weather forecast for this period
Forecast for: SKBG (BUCARAMANGO/PALO, CO)
Text: TAF SKBG 261700Z 2618/2718 34004KT 9999 SCT012 SCT080
Forecast period: 1900 UTC 26 April 2018 to 1800 UTC 27 April 2018
Forecast type: BECOMING: Conditions expected to become as follows by 2100 UTC 26 April 2018
Winds: variable direction winds at 2 MPH (2 knots; 1.0 m/s)
Visibility: 6 or more miles (10+ km)
Clouds: scattered clouds at 1200 feet AGL
scattered clouds at 8000 feet AGL
Weather: no significant weather forecast for this period
Forecast for: SKBG (BUCARAMANGO/PALO, CO)
Text: TAF SKBG 261700Z 2618/2718 34004KT 9999 SCT012 SCT080
Forecast period: 1900 UTC 26 April 2018 to 0200 UTC 27 April 2018
Forecast type: TEMPORARY: The following changes expected for less than half the time period
Visibility: 3 miles (5 km)
Clouds: scattered clouds at 1400 feet AGL
scattered clouds at 1700 feet AGL
Weather: TSRA  (rain associated with thunderstorm(s))
Forecast for: SKBG (BUCARAMANGO/PALO, CO)
Text: TAF SKBG 261700Z 2618/2718 34004KT 9999 SCT012 SCT080
Forecast period: 1900 UTC 26 April 2018 to 0200 UTC 27 April 2018
Forecast type: TEMPORARY: The following changes expected for less than half the time period
Visibility: 3 miles (5 km)
Clouds: scattered clouds at 1400 feet AGL
scattered clouds at 1700 feet AGL
Weather: TSRA  (rain associated with thunderstorm(s))
Forecast for: SKBG (BUCARAMANGO/PALO, CO)
Text: TAF SKBG 261700Z 2618/2718 34004KT 9999 SCT012 SCT080
Forecast period: 0900 to 1300 UTC 27 April 2018
Forecast type: TEMPORARY: The following changes expected for less than half the time period
Visibility: 1.24 miles (2.00 km)
Ceiling: 500 feet AGL
Clouds: broken clouds at 500 feet AGL
Weather: BCFG  (patches of fog)
Forecast for: SKBG (BUCARAMANGO/PALO, CO)
Text: TAF SKBG 261700Z 2618/2718 34004KT 9999 SCT012 SCT080
Forecast period: 0900 to 1300 UTC 27 April 2018
Forecast type: TEMPORARY: The following changes expected for less than half the time period
Visibility: 1.24 miles (2.00 km)
Ceiling: 500 feet AGL
Clouds: broken clouds at 500 feet AGL
Weather: BCFG  (patches of fog)

 AIRPORT MAP

 RUNWAY INFORMATION
Runway 16 Runway length 7381 ft Runway width 131 ft
Runway elevation 3902 ft Runway displaced threshold 0 ft Runway heading 159
Runway 34 Runway length 7381 ft Runway width 131 ft
Runway elevation 3851 ft Runway displaced threshold 0 ft Runway heading 339

 AIRPORT FREQUENCIES
Type A/G Name BUCARAMANG Frequency 348.8 MHZ
Type APP Name BUCARAMANG Frequency 119 MHZ
Type RDO Name FIS Frequency 126.7 MHZ
Type TWR Name TWR Frequency 118.3 MHZ

 AIRPORT NEAR NAVIGATION AIDS
Type VOR-DME Name Bucaramanga Frequency 113500 KHZ
Type NDB Name Piedecuesta Frequency 400 KHZ



v2.6.1